sensor_id;sensor_type;location;lat;lon;timestamp;pressure;altitude;pressure_sealevel;temperature;humidity
64078;BME280;51039;49.696;10.808;2022-09-12T00:00:19;98574.44;;;11.76;100.00
64078;BME280;51039;49.696;10.808;2022-09-12T00:02:47;98574.81;;;11.87;100.00
64078;BME280;51039;49.696;10.808;2022-09-12T00:05:15;98583.84;;;11.92;100.00
64078;BME280;51039;49.696;10.808;2022-09-12T00:07:40;98583.44;;;11.95;100.00
64078;BME280;51039;49.696;10.808;2022-09-12T00:10:06;98578.72;;;11.91;100.00
64078;BME280;51039;49.696;10.808;2022-09-12T00:12:31;98575.25;;;11.97;100.00
64078;BME280;51039;49.696;10.808;2022-09-12T00:14:57;98576.25;;;12.03;100.00
64078;BME280;51039;49.696;10.808;2022-09-12T00:17:22;98577.09;;;12.03;100.00
64078;BME280;51039;49.696;10.808;2022-09-12T00:19:48;98568.69;;;12.06;100.00
64078;BME280;51039;49.696;10.808;2022-09-12T00:22:13;98572.78;;;12.02;100.00
64078;BME280;51039;49.696;10.808;2022-09-12T00:24:38;98567.91;;;11.99;100.00
64078;BME280;51039;49.696;10.808;2022-09-12T00:27:04;98565.88;;;12.01;100.00
64078;BME280;51039;49.696;10.808;2022-09-12T00:29:30;98562.38;;;12.01;100.00
64078;BME280;51039;49.696;10.808;2022-09-12T00:31:55;98568.72;;;12.00;100.00
64078;BME280;51039;49.696;10.808;2022-09-12T00:34:20;98567.91;;;11.99;100.00
64078;BME280;51039;49.696;10.808;2022-09-12T00:36:46;98567.91;;;11.99;100.00
64078;BME280;51039;49.696;10.808;2022-09-12T00:39:13;98561.34;;;11.95;100.00
64078;BME280;51039;49.696;10.808;2022-09-12T00:41:39;98558.09;;;11.93;100.00
64078;BME280;51039;49.696;10.808;2022-09-12T00:46:43;98560.53;;;11.88;100.00
64078;BME280;51039;49.696;10.808;2022-09-12T00:52:21;98555.66;;;11.91;100.00
64078;BME280;51039;49.696;10.808;2022-09-12T00:54:59;98555.44;;;11.93;100.00
64078;BME280;51039;49.696;10.808;2022-09-12T00:57:35;98551.78;;;11.94;100.00
64078;BME280;51039;49.696;10.808;2022-09-12T01:00:22;98548.28;;;11.87;100.00
64078;BME280;51039;49.696;10.808;2022-09-12T01:02:50;98543.41;;;11.84;100.00
64078;BME280;51039;49.696;10.808;2022-09-12T01:05:21;98547.66;;;11.85;100.00
64078;BME280;51039;49.696;10.808;2022-09-12T01:07:47;98540.72;;;11.77;100.00
64078;BME280;51039;49.696;10.808;2022-09-12T01:10:15;98539.50;;;11.79;100.00
64078;BME280;51039;49.696;10.808;2022-09-12T01:12:40;98540.53;;;11.72;100.00
64078;BME280;51039;49.696;10.808;2022-09-12T01:15:07;98544.22;;;11.71;100.00
64078;BME280;51039;49.696;10.808;2022-09-12T01:17:37;98537.69;;;11.73;100.00
64078;BME280;51039;49.696;10.808;2022-09-12T01:22:59;98534.00;;;11.74;100.00
64078;BME280;51039;49.696;10.808;2022-09-12T01:25:59;98535.22;;;11.78;100.00
64078;BME280;51039;49.696;10.808;2022-09-12T01:31:23;98529.91;;;11.78;99.94
64078;BME280;51039;49.696;10.808;2022-09-12T01:33:58;98518.69;;;11.76;100.00
64078;BME280;51039;49.696;10.808;2022-09-12T01:36:49;98519.09;;;11.80;100.00
64078;BME280;51039;49.696;10.808;2022-09-12T01:42:42;98520.91;;;11.79;100.00
64078;BME280;51039;49.696;10.808;2022-09-12T01:45:14;98520.31;;;11.77;100.00
64078;BME280;51039;49.696;10.808;2022-09-12T01:48:16;98519.91;;;11.74;100.00
64078;BME280;51039;49.696;10.808;2022-09-12T01:50:49;98531.53;;;11.79;100.00
64078;BME280;51039;49.696;10.808;2022-09-12T01:53:24;98515.63;;;11.79;100.00
64078;BME280;51039;49.696;10.808;2022-09-12T01:56:07;98519.31;;;11.78;100.00
64078;BME280;51039;49.696;10.808;2022-09-12T01:58:38;98514.19;;;11.77;100.00
64078;BME280;51039;49.696;10.808;2022-09-12T02:01:16;98508.69;;;11.72;100.00
64078;BME280;51039;49.696;10.808;2022-09-12T02:04:12;98502.16;;;11.81;100.00
64078;BME280;51039;49.696;10.808;2022-09-12T02:06:46;98502.78;;;11.76;100.00
64078;BME280;51039;49.696;10.808;2022-09-12T02:09:18;98502.78;;;11.76;100.00
64078;BME280;51039;49.696;10.808;2022-09-12T02:11:47;98499.72;;;11.73;100.00
64078;BME280;51039;49.696;10.808;2022-09-12T02:14:36;98504.19;;;11.79;100.00
64078;BME280;51039;49.696;10.808;2022-09-12T02:17:08;98503.00;;;11.62;100.00
64078;BME280;51039;49.696;10.808;2022-09-12T02:19:39;98505.84;;;11.60;100.00
64078;BME280;51039;49.696;10.808;2022-09-12T02:22:14;98506.47;;;11.49;100.00
64078;BME280;51039;49.696;10.808;2022-09-12T02:24:45;98503.44;;;11.45;100.00
64078;BME280;51039;49.696;10.808;2022-09-12T02:27:20;98497.47;;;11.43;100.00
64078;BME280;51039;49.696;10.808;2022-09-12T02:29:49;98495.84;;;11.49;100.00
64078;BME280;51039;49.696;10.808;2022-09-12T02:34:57;98506.47;;;11.49;100.00
64078;BME280;51039;49.696;10.808;2022-09-12T02:40:15;98501.97;;;11.43;100.00
64078;BME280;51039;49.696;10.808;2022-09-12T02:42:41;98490.75;;;11.40;100.00
64078;BME280;51039;49.696;10.808;2022-09-12T02:45:07;98496.06;;;11.47;100.00
64078;BME280;51039;49.696;10.808;2022-09-12T02:47:56;98497.09;;;11.39;100.00
64078;BME280;51039;49.696;10.808;2022-09-12T02:50:26;98491.97;;;11.31;100.00
64078;BME280;51039;49.696;10.808;2022-09-12T02:52:52;98494.63;;;11.31;100.00
64078;BME280;51039;49.696;10.808;2022-09-12T02:55:19;98487.50;;;11.32;100.00
64078;BME280;51039;49.696;10.808;2022-09-12T02:57:44;98493.44;;;11.34;100.00
64078;BME280;51039;49.696;10.808;2022-09-12T03:00:10;98492.00;;;11.38;100.00
64078;BME280;51039;49.696;10.808;2022-09-12T03:11:21;98491.16;;;11.31;100.00
64078;BME280;51039;49.696;10.808;2022-09-12T03:14:04;98494.22;;;11.34;100.00
64078;BME280;51039;49.696;10.808;2022-09-12T03:19:28;98490.16;;;11.38;100.00
64078;BME280;51039;49.696;10.808;2022-09-12T03:27:30;98497.50;;;11.50;100.00
64078;BME280;51039;49.696;10.808;2022-09-12T03:29:59;98492.59;;;11.40;100.00
64078;BME280;51039;49.696;10.808;2022-09-12T03:32:43;98491.16;;;11.51;100.00
64078;BME280;51039;49.696;10.808;2022-09-12T03:35:10;98497.50;;;11.50;100.00
64078;BME280;51039;49.696;10.808;2022-09-12T03:37:37;98501.38;;;11.61;100.00
64078;BME280;51039;49.696;10.808;2022-09-12T03:40:04;98497.09;;;11.53;100.00
64078;BME280;51039;49.696;10.808;2022-09-12T03:42:30;98492.41;;;11.42;100.00
64078;BME280;51039;49.696;10.808;2022-09-12T03:44:55;98486.25;;;11.41;100.00
64078;BME280;51039;49.696;10.808;2022-09-12T03:47:20;98488.13;;;11.47;100.00
64078;BME280;51039;49.696;10.808;2022-09-12T03:49:46;98494.44;;;11.53;100.00
64078;BME280;51039;49.696;10.808;2022-09-12T03:52:11;98495.25;;;11.47;100.00
64078;BME280;51039;49.696;10.808;2022-09-12T03:54:36;98488.31;;;11.46;100.00
64078;BME280;51039;49.696;10.808;2022-09-12T03:57:02;98496.06;;;11.54;100.00
64078;BME280;51039;49.696;10.808;2022-09-12T03:59:27;98491.78;;;11.46;100.00
64078;BME280;51039;49.696;10.808;2022-09-12T04:01:52;98494.44;;;11.53;100.00
64078;BME280;51039;49.696;10.808;2022-09-12T04:04:18;98495.84;;;11.55;100.00
64078;BME280;51039;49.696;10.808;2022-09-12T04:06:43;98498.50;;;11.49;100.00
64078;BME280;51039;49.696;10.808;2022-09-12T04:09:08;98500.16;;;11.50;100.00
64078;BME280;51039;49.696;10.808;2022-09-12T04:11:33;98501.75;;;11.51;100.00
64078;BME280;51039;49.696;10.808;2022-09-12T04:14:00;98502.00;;;11.49;100.00
64078;BME280;51039;49.696;10.808;2022-09-12T04:16:25;98498.50;;;11.49;100.00
64078;BME280;51039;49.696;10.808;2022-09-12T04:18:50;98500.94;;;11.50;100.00
64078;BME280;51039;49.696;10.808;2022-09-12T04:21:17;98497.09;;;11.46;100.00
64078;BME280;51039;49.696;10.808;2022-09-12T04:23:43;98494.44;;;11.39;100.00
64078;BME280;51039;49.696;10.808;2022-09-12T04:26:09;98501.56;;;11.52;100.00
64078;BME280;51039;49.696;10.808;2022-09-12T04:28:35;98499.72;;;11.59;100.00
64078;BME280;51039;49.696;10.808;2022-09-12T04:31:05;98499.31;;;11.56;100.00
64078;BME280;51039;49.696;10.808;2022-09-12T04:33:34;98504.81;;;11.54;100.00
64078;BME280;51039;49.696;10.808;2022-09-12T04:36:07;98497.28;;;11.58;100.00
64078;BME280;51039;49.696;10.808;2022-09-12T04:38:38;98489.94;;;11.60;100.00
64078;BME280;51039;49.696;10.808;2022-09-12T04:41:11;98493.19;;;11.62;100.00
64078;BME280;51039;49.696;10.808;2022-09-12T04:43:44;98491.38;;;11.63;100.00
64078;BME280;51039;49.696;10.808;2022-09-12T04:46:12;98494.03;;;11.63;100.00
64078;BME280;51039;49.696;10.808;2022-09-12T04:48:39;98496.03;;;11.67;100.00
64078;BME280;51039;49.696;10.808;2022-09-12T04:51:12;98493.00;;;11.70;100.00
64078;BME280;51039;49.696;10.808;2022-09-12T04:53:49;98491.97;;;11.71;100.00
64078;BME280;51039;49.696;10.808;2022-09-12T04:56:16;98488.09;;;11.67;100.00
64078;BME280;51039;49.696;10.808;2022-09-12T04:58:43;98494.41;;;11.66;100.00
64078;BME280;51039;49.696;10.808;2022-09-12T05:01:10;98499.72;;;11.59;100.00
64078;BME280;51039;49.696;10.808;2022-09-12T05:03:40;98503.38;;;11.58;100.00
64078;BME280;51039;49.696;10.808;2022-09-12T05:06:11;98503.63;;;11.44;100.00
64078;BME280;51039;49.696;10.808;2022-09-12T05:08:39;98503.44;;;11.45;100.00
64078;BME280;51039;49.696;10.808;2022-09-12T05:11:06;98505.84;;;11.47;100.00
64078;BME280;51039;49.696;10.808;2022-09-12T05:13:34;98511.56;;;11.57;100.00
64078;BME280;51039;49.696;10.808;2022-09-12T05:16:00;98513.63;;;11.68;100.00
64078;BME280;51039;49.696;10.808;2022-09-12T05:18:27;98503.38;;;11.78;100.00
64078;BME280;51039;49.696;10.808;2022-09-12T05:20:54;98511.56;;;11.84;100.00
64078;BME280;51039;49.696;10.808;2022-09-12T05:23:20;98512.16;;;11.86;100.00
64078;BME280;51039;49.696;10.808;2022-09-12T05:25:49;98514.81;;;11.92;100.00
64078;BME280;51039;49.696;10.808;2022-09-12T05:28:16;98516.63;;;11.98;100.00
64078;BME280;51039;49.696;10.808;2022-09-12T05:30:43;98507.25;;;11.96;100.00
64078;BME280;51039;49.696;10.808;2022-09-12T05:33:08;98509.06;;;11.89;100.00
64078;BME280;51039;49.696;10.808;2022-09-12T05:35:33;98512.75;;;11.94;100.00
64078;BME280;51039;49.696;10.808;2022-09-12T05:37:59;98523.38;;;12.01;99.91
64078;BME280;51039;49.696;10.808;2022-09-12T05:40:24;98516.41;;;12.13;99.52
64078;BME280;51039;49.696;10.808;2022-09-12T05:42:49;98522.31;;;12.15;99.42
64078;BME280;51039;49.696;10.808;2022-09-12T05:45:15;98518.03;;;12.08;99.37
64078;BME280;51039;49.696;10.808;2022-09-12T05:47:40;98521.72;;;11.87;99.99
64078;BME280;51039;49.696;10.808;2022-09-12T05:50:07;98525.44;;;11.59;100.00
64078;BME280;51039;49.696;10.808;2022-09-12T05:52:35;98525.25;;;11.54;100.00
64078;BME280;51039;49.696;10.808;2022-09-12T05:55:00;98527.06;;;11.67;100.00
64078;BME280;51039;49.696;10.808;2022-09-12T05:57:26;98528.88;;;11.79;100.00
64078;BME280;51039;49.696;10.808;2022-09-12T05:59:51;98532.78;;;11.84;100.00
64078;BME280;51039;49.696;10.808;2022-09-12T06:02:17;98533.19;;;11.94;100.00
64078;BME280;51039;49.696;10.808;2022-09-12T06:04:42;98535.63;;;12.09;99.92
64078;BME280;51039;49.696;10.808;2022-09-12T06:07:07;98534.38;;;12.11;99.06
64078;BME280;51039;49.696;10.808;2022-09-12T06:09:33;98547.28;;;12.01;99.40
64078;BME280;51039;49.696;10.808;2022-09-12T06:11:58;98540.53;;;11.98;99.28
64078;BME280;51039;49.696;10.808;2022-09-12T06:14:24;98547.88;;;12.03;98.76
64078;BME280;51039;49.696;10.808;2022-09-12T06:16:50;98536.81;;;12.20;98.84
64078;BME280;51039;49.696;10.808;2022-09-12T06:19:19;98539.88;;;12.10;98.53
64078;BME280;51039;49.696;10.808;2022-09-12T06:21:45;98536.81;;;12.26;99.11
64078;BME280;51039;49.696;10.808;2022-09-12T06:24:13;98541.31;;;12.19;98.30
64078;BME280;51039;49.696;10.808;2022-09-12T06:26:38;98536.41;;;12.23;98.22
64078;BME280;51039;49.696;10.808;2022-09-12T06:29:04;98530.41;;;12.47;98.06
64078;BME280;51039;49.696;10.808;2022-09-12T06:31:30;98532.50;;;12.77;96.88
64078;BME280;51039;49.696;10.808;2022-09-12T06:33:58;98533.91;;;12.80;95.81
64078;BME280;51039;49.696;10.808;2022-09-12T06:36:26;98529.69;;;12.65;95.63
64078;BME280;51039;49.696;10.808;2022-09-12T06:38:58;98523.97;;;12.62;95.87
64078;BME280;51039;49.696;10.808;2022-09-12T06:41:25;98536.31;;;12.49;97.40
64078;BME280;51039;49.696;10.808;2022-09-12T06:43:52;98531.75;;;12.63;97.20
64078;BME280;51039;49.696;10.808;2022-09-12T06:46:17;98531.69;;;12.70;96.20
64078;BME280;51039;49.696;10.808;2022-09-12T06:48:43;98529.03;;;12.70;95.65
64078;BME280;51039;49.696;10.808;2022-09-12T06:51:09;98535.94;;;12.84;96.02
64078;BME280;51039;49.696;10.808;2022-09-12T06:53:37;98526.81;;;12.67;95.28
64078;BME280;51039;49.696;10.808;2022-09-12T06:56:07;98534.41;;;12.63;95.04
64078;BME280;51039;49.696;10.808;2022-09-12T06:58:34;98540.44;;;12.84;94.47
64078;BME280;51039;49.696;10.808;2022-09-12T07:01:01;98533.81;;;12.54;95.36
64078;BME280;51039;49.696;10.808;2022-09-12T07:03:31;98538.44;;;12.14;96.58
64078;BME280;51039;49.696;10.808;2022-09-12T07:06:01;98534.75;;;12.28;96.70
64078;BME280;51039;49.696;10.808;2022-09-12T07:08:30;98539.47;;;12.20;96.65
64078;BME280;51039;49.696;10.808;2022-09-12T07:11:03;98536.22;;;12.11;98.92
64078;BME280;51039;49.696;10.808;2022-09-12T07:13:33;98529.84;;;12.25;97.00
64078;BME280;51039;49.696;10.808;2022-09-12T07:16:01;98530.59;;;12.39;96.54
64078;BME280;51039;49.696;10.808;2022-09-12T07:18:28;98536.81;;;12.26;96.91
64078;BME280;51039;49.696;10.808;2022-09-12T07:20:53;98534.97;;;12.13;96.66
64078;BME280;51039;49.696;10.808;2022-09-12T07:23:19;98530.66;;;12.32;97.42
64078;BME280;51039;49.696;10.808;2022-09-12T07:25:50;98531.41;;;12.53;94.93
64078;BME280;51039;49.696;10.808;2022-09-12T07:28:17;98539.22;;;12.34;95.74
64078;BME280;51039;49.696;10.808;2022-09-12T07:30:42;98542.38;;;12.56;95.54
64078;BME280;51039;49.696;10.808;2022-09-12T07:33:07;98537.81;;;12.32;96.10
64078;BME280;51039;49.696;10.808;2022-09-12T07:35:32;98540.50;;;12.18;96.48
64078;BME280;51039;49.696;10.808;2022-09-12T07:37:58;98548.41;;;12.38;96.85
64078;BME280;51039;49.696;10.808;2022-09-12T07:40:24;98548.09;;;12.67;94.97
64078;BME280;51039;49.696;10.808;2022-09-12T07:42:49;98543.31;;;12.82;93.80
64078;BME280;51039;49.696;10.808;2022-09-12T07:45:14;98547.13;;;12.93;93.51
64078;BME280;51039;49.696;10.808;2022-09-12T07:47:40;98544.25;;;12.94;92.45
64078;BME280;51039;49.696;10.808;2022-09-12T07:50:05;98545.50;;;12.92;92.96
64078;BME280;51039;49.696;10.808;2022-09-12T07:52:31;98544.78;;;13.10;92.55
64078;BME280;51039;49.696;10.808;2022-09-12T07:54:56;98547.16;;;13.25;92.20
64078;BME280;51039;49.696;10.808;2022-09-12T07:57:22;98547.88;;;13.39;91.05
64078;BME280;51039;49.696;10.808;2022-09-12T07:59:48;98553.66;;;13.61;89.80
64078;BME280;51039;49.696;10.808;2022-09-12T08:02:13;98556.16;;;13.81;88.81
64078;BME280;51039;49.696;10.808;2022-09-12T08:04:38;98559.44;;;14.01;88.04
64078;BME280;51039;49.696;10.808;2022-09-12T08:07:06;98563.47;;;13.35;89.60
64078;BME280;51039;49.696;10.808;2022-09-12T08:09:31;98571.16;;;13.11;91.31
64078;BME280;51039;49.696;10.808;2022-09-12T08:11:57;98565.06;;;13.68;89.56
64078;BME280;51039;49.696;10.808;2022-09-12T08:14:22;98569.03;;;13.84;88.19
64078;BME280;51039;49.696;10.808;2022-09-12T08:16:47;98571.75;;;13.52;88.22
64078;BME280;51039;49.696;10.808;2022-09-12T08:19:13;98567.97;;;13.34;90.16
64078;BME280;51039;49.696;10.808;2022-09-12T08:21:38;98565.81;;;13.75;88.64
64078;BME280;51039;49.696;10.808;2022-09-12T08:24:04;98568.53;;;13.93;87.66
64078;BME280;51039;49.696;10.808;2022-09-12T08:26:30;98562.25;;;14.06;86.87
64078;BME280;51039;49.696;10.808;2022-09-12T08:28:57;98555.59;;;13.72;89.36
64078;BME280;51039;49.696;10.808;2022-09-12T08:31:23;98560.63;;;14.05;86.85
64078;BME280;51039;49.696;10.808;2022-09-12T08:33:50;98560.41;;;14.25;86.22
64078;BME280;51039;49.696;10.808;2022-09-12T08:36:19;98557.97;;;14.24;87.33
64078;BME280;51039;49.696;10.808;2022-09-12T08:38:48;98564.06;;;14.68;85.54
64078;BME280;51039;49.696;10.808;2022-09-12T08:44:14;98553.63;;;14.97;83.81
64078;BME280;51039;49.696;10.808;2022-09-12T08:46:56;98557.88;;;15.16;83.40
64078;BME280;51039;49.696;10.808;2022-09-12T08:49:30;98547.66;;;15.55;81.91
64078;BME280;51039;49.696;10.808;2022-09-12T08:51:58;98549.56;;;14.64;85.38
64078;BME280;51039;49.696;10.808;2022-09-12T08:54:30;98549.72;;;14.99;84.73
64078;BME280;51039;49.696;10.808;2022-09-12T08:56:58;98551.88;;;15.21;83.89
64078;BME280;51039;49.696;10.808;2022-09-12T08:59:29;98547.13;;;15.77;80.96
64078;BME280;51039;49.696;10.808;2022-09-12T09:02:01;98556.16;;;15.87;80.39
64078;BME280;51039;49.696;10.808;2022-09-12T09:04:34;98553.13;;;16.83;78.72
64078;BME280;51039;49.696;10.808;2022-09-12T09:17:44;98553.22;;;18.41;71.17
64078;BME280;51039;49.696;10.808;2022-09-12T09:22:55;98547.53;;;19.36;66.82
64078;BME280;51039;49.696;10.808;2022-09-12T09:28:00;98533.88;;;20.12;64.50
64078;BME280;51039;49.696;10.808;2022-09-12T09:30:39;98535.88;;;20.32;64.46
64078;BME280;51039;49.696;10.808;2022-09-12T09:33:09;98532.09;;;21.99;57.95
64078;BME280;51039;49.696;10.808;2022-09-12T09:41:00;98531.72;;;24.29;52.31
64078;BME280;51039;49.696;10.808;2022-09-12T09:43:28;98525.00;;;24.69;51.76
64078;BME280;51039;49.696;10.808;2022-09-12T09:45:55;98530.22;;;25.56;49.20
64078;BME280;51039;49.696;10.808;2022-09-12T09:48:26;98529.44;;;26.02;48.34
64078;BME280;51039;49.696;10.808;2022-09-12T09:50:55;98527.75;;;26.61;47.73
64078;BME280;51039;49.696;10.808;2022-09-12T09:53:25;98525.16;;;25.82;48.85
64078;BME280;51039;49.696;10.808;2022-09-12T09:58:51;98519.50;;;24.94;51.06
64078;BME280;51039;49.696;10.808;2022-09-12T10:01:17;98511.78;;;25.58;49.89
64078;BME280;51039;49.696;10.808;2022-09-12T10:03:46;98509.16;;;23.85;52.49
64078;BME280;51039;49.696;10.808;2022-09-12T10:08:44;98512.75;;;23.12;56.86
64078;BME280;51039;49.696;10.808;2022-09-12T10:11:22;98513.53;;;24.05;53.61
64078;BME280;51039;49.696;10.808;2022-09-12T10:13:52;98510.44;;;24.41;52.86
64078;BME280;51039;49.696;10.808;2022-09-12T10:16:24;98507.94;;;24.45;53.79
64078;BME280;51039;49.696;10.808;2022-09-12T10:18:52;98508.66;;;24.75;52.68
64078;BME280;51039;49.696;10.808;2022-09-12T10:21:20;98505.09;;;24.79;51.39
64078;BME280;51039;49.696;10.808;2022-09-12T10:26:43;98503.69;;;23.61;53.18
64078;BME280;51039;49.696;10.808;2022-09-12T10:29:16;98499.28;;;23.70;53.53
64078;BME280;51039;49.696;10.808;2022-09-12T10:31:52;98490.00;;;24.54;51.41
64078;BME280;51039;49.696;10.808;2022-09-12T10:34:25;98492.84;;;23.61;52.56
64078;BME280;51039;49.696;10.808;2022-09-12T10:37:01;98490.59;;;23.44;54.12
64078;BME280;51039;49.696;10.808;2022-09-12T10:39:31;98487.63;;;23.99;52.14
64078;BME280;51039;49.696;10.808;2022-09-12T10:42:00;98491.09;;;24.05;52.27
64078;BME280;51039;49.696;10.808;2022-09-12T10:44:27;98486.88;;;24.85;50.01
64078;BME280;51039;49.696;10.808;2022-09-12T10:46:57;98491.66;;;24.02;51.06
64078;BME280;51039;49.696;10.808;2022-09-12T10:49:30;98482.06;;;25.15;50.18
64078;BME280;51039;49.696;10.808;2022-09-12T10:52:15;98473.00;;;24.24;49.91
64078;BME280;51039;49.696;10.808;2022-09-12T10:54:46;98476.88;;;24.18;49.05
64078;BME280;51039;49.696;10.808;2022-09-12T11:00:10;98488.16;;;22.64;51.36
64078;BME280;51039;49.696;10.808;2022-09-12T11:02:55;98482.13;;;23.22;51.35
64078;BME280;51039;49.696;10.808;2022-09-12T11:16:39;98466.09;;;24.13;49.29
64078;BME280;51039;49.696;10.808;2022-09-12T11:19:36;98458.75;;;24.38;51.18
64078;BME280;51039;49.696;10.808;2022-09-12T11:30:20;98441.63;;;24.23;48.09
64078;BME280;51039;49.696;10.808;2022-09-12T11:40:42;98442.09;;;23.29;50.71
64078;BME280;51039;49.696;10.808;2022-09-12T11:46:05;98433.25;;;23.47;49.96
64078;BME280;51039;49.696;10.808;2022-09-12T11:51:26;98426.38;;;23.60;48.36
64078;BME280;51039;49.696;10.808;2022-09-12T11:54:08;98425.28;;;23.03;49.66
64078;BME280;51039;49.696;10.808;2022-09-12T11:56:59;98427.50;;;23.25;48.67
64078;BME280;51039;49.696;10.808;2022-09-12T12:02:25;98424.28;;;23.52;47.36
64078;BME280;51039;49.696;10.808;2022-09-12T12:05:09;98421.13;;;23.98;46.99
64078;BME280;51039;49.696;10.808;2022-09-12T12:07:40;98414.84;;;23.49;47.40
64078;BME280;51039;49.696;10.808;2022-09-12T12:10:24;98417.06;;;23.13;48.81
64078;BME280;51039;49.696;10.808;2022-09-12T12:12:50;98417.16;;;23.32;48.96
64078;BME280;51039;49.696;10.808;2022-09-12T12:15:17;98419.97;;;23.22;47.71
64078;BME280;51039;49.696;10.808;2022-09-12T12:17:52;98408.81;;;23.28;47.64
64078;BME280;51039;49.696;10.808;2022-09-12T12:20:39;98400.63;;;23.09;48.22
64078;BME280;51039;49.696;10.808;2022-09-12T12:23:05;98402.63;;;22.93;47.75
64078;BME280;51039;49.696;10.808;2022-09-12T12:25:40;98406.53;;;22.77;49.07
64078;BME280;51039;49.696;10.808;2022-09-12T12:28:53;98392.28;;;23.06;47.29
64078;BME280;51039;49.696;10.808;2022-09-12T12:31:07;98401.97;;;23.12;47.66
64078;BME280;51039;49.696;10.808;2022-09-12T12:36:04;98394.56;;;23.23;46.22
64078;BME280;51039;49.696;10.808;2022-09-12T12:38:32;98387.75;;;23.55;45.76
64078;BME280;51039;49.696;10.808;2022-09-12T12:43:45;98398.03;;;23.77;46.12
64078;BME280;51039;49.696;10.808;2022-09-12T12:46:12;98392.25;;;24.32;46.98
64078;BME280;51039;49.696;10.808;2022-09-12T12:48:51;98384.22;;;24.64;45.16
64078;BME280;51039;49.696;10.808;2022-09-12T12:51:53;98387.56;;;25.27;44.83
64078;BME280;51039;49.696;10.808;2022-09-12T12:56:59;98384.25;;;25.30;44.32
64078;BME280;51039;49.696;10.808;2022-09-12T12:59:26;98387.88;;;25.39;45.07
64078;BME280;51039;49.696;10.808;2022-09-12T13:01:53;98380.31;;;25.36;44.04
64078;BME280;51039;49.696;10.808;2022-09-12T13:04:23;98380.53;;;24.93;46.55
64078;BME280;51039;49.696;10.808;2022-09-12T13:06:56;98377.88;;;24.88;44.94
64078;BME280;51039;49.696;10.808;2022-09-12T13:11:59;98366.25;;;24.49;43.33
64078;BME280;51039;49.696;10.808;2022-09-12T13:14:35;98361.09;;;24.53;40.77
64078;BME280;51039;49.696;10.808;2022-09-12T13:17:13;98361.16;;;24.29;40.04
64078;BME280;51039;49.696;10.808;2022-09-12T13:20:22;98353.00;;;24.48;41.35
64078;BME280;51039;49.696;10.808;2022-09-12T13:22:49;98356.56;;;24.29;44.05
64078;BME280;51039;49.696;10.808;2022-09-12T13:25:26;98346.97;;;24.37;45.07
64078;BME280;51039;49.696;10.808;2022-09-12T13:27:55;98343.31;;;24.47;44.96
64078;BME280;51039;49.696;10.808;2022-09-12T13:30:37;98340.81;;;24.50;44.31
64078;BME280;51039;49.696;10.808;2022-09-12T13:44:11;98324.94;;;24.63;43.29
64078;BME280;51039;49.696;10.808;2022-09-12T13:46:40;98328.88;;;24.33;41.99
64078;BME280;51039;49.696;10.808;2022-09-12T13:49:25;98327.53;;;24.87;42.75
64078;BME280;51039;49.696;10.808;2022-09-12T13:52:03;98331.75;;;24.41;44.72
64078;BME280;51039;49.696;10.808;2022-09-12T13:54:31;98325.22;;;24.61;45.03
64078;BME280;51039;49.696;10.808;2022-09-12T13:57:01;98321.69;;;24.80;44.65
64078;BME280;51039;49.696;10.808;2022-09-12T13:59:28;98321.22;;;24.59;44.02
64078;BME280;51039;49.696;10.808;2022-09-12T14:02:14;98319.22;;;24.97;43.64
64078;BME280;51039;49.696;10.808;2022-09-12T14:04:46;98315.31;;;25.17;43.00
64078;BME280;51039;49.696;10.808;2022-09-12T14:07:30;98318.94;;;25.13;42.77
64078;BME280;51039;49.696;10.808;2022-09-12T14:09:57;98312.38;;;25.00;42.15
64078;BME280;51039;49.696;10.808;2022-09-12T14:14:53;98315.22;;;24.43;43.16
64078;BME280;51039;49.696;10.808;2022-09-12T14:20:04;98316.59;;;24.59;42.83
64078;BME280;51039;49.696;10.808;2022-09-12T14:22:32;98313.22;;;24.67;42.64
64078;BME280;51039;49.696;10.808;2022-09-12T14:25:00;98309.38;;;24.55;44.96
64078;BME280;51039;49.696;10.808;2022-09-12T14:27:26;98307.41;;;24.74;43.34
64078;BME280;51039;49.696;10.808;2022-09-12T14:30:06;98307.31;;;24.46;43.21
64078;BME280;51039;49.696;10.808;2022-09-12T14:35:30;98303.72;;;24.51;43.86
64078;BME280;51039;49.696;10.808;2022-09-12T14:37:56;98298.56;;;24.68;43.25
64078;BME280;51039;49.696;10.808;2022-09-12T14:40:39;98302.88;;;23.99;43.90
64078;BME280;51039;49.696;10.808;2022-09-12T14:43:15;98293.00;;;23.89;43.39
64078;BME280;51039;49.696;10.808;2022-09-12T14:45:56;98284.13;;;23.59;44.45
64078;BME280;51039;49.696;10.808;2022-09-12T14:48:25;98288.25;;;23.57;44.79
64078;BME280;51039;49.696;10.808;2022-09-12T14:50:55;98296.94;;;23.29;45.07
64078;BME280;51039;49.696;10.808;2022-09-12T14:53:31;98276.69;;;23.51;44.36
64078;BME280;51039;49.696;10.808;2022-09-12T14:56:09;98272.97;;;23.66;45.05
64078;BME280;51039;49.696;10.808;2022-09-12T14:58:39;98275.97;;;23.64;44.84
64078;BME280;51039;49.696;10.808;2022-09-12T15:03:32;98273.22;;;23.69;44.62
64078;BME280;51039;49.696;10.808;2022-09-12T15:05:59;98269.31;;;23.32;45.36
64078;BME280;51039;49.696;10.808;2022-09-12T15:08:29;98274.56;;;23.67;44.88
64078;BME280;51039;49.696;10.808;2022-09-12T15:10:56;98270.47;;;23.50;45.00
64078;BME280;51039;49.696;10.808;2022-09-12T15:13:23;98274.50;;;23.53;44.45
64078;BME280;51039;49.696;10.808;2022-09-12T15:15:57;98271.13;;;23.42;46.60
64078;BME280;51039;49.696;10.808;2022-09-12T15:18:24;98270.44;;;23.31;44.80
64078;BME280;51039;49.696;10.808;2022-09-12T15:21:00;98265.34;;;23.25;44.52